Time,TemperatureF,DewpointF,PressureIn,WindDirection,WindDirectionDegrees,WindSpeedMPH,WindSpeedGustMPH,Humidity,HourlyPrecipIn,Conditions,Clouds,dailyrainin,SolarRadiationWatts/m^2,SoftwareType,DateUTC
2013-03-24 00:01:00,19.0,4.0,-100.00,West,269,3.0,8.0,51,0.00,,,0.00,0.000000,,2013-03-24 06:01:00,
2013-03-24 00:32:00,20.0,3.0,-100.00,West,280,1.0,7.0,46,0.00,,,0.00,0.000000,,2013-03-24 06:32:00,
2013-03-24 00:42:00,20.0,3.0,-100.00,West,280,1.0,7.0,46,0.00,,,0.00,0.000000,,2013-03-24 06:42:00,
2013-03-24 00:52:00,20.0,3.0,-100.00,West,280,1.0,7.0,46,0.00,,,0.00,0.000000,,2013-03-24 06:52:00,
2013-03-24 01:02:00,20.0,3.0,-100.00,West,280,1.0,7.0,46,0.00,,,0.00,0.000000,,2013-03-24 07:02:00,
2013-03-24 01:32:00,17.0,4.0,-100.00,SW,232,3.0,5.0,55,0.00,,,0.00,0.000000,,2013-03-24 07:32:00,
2013-03-24 01:42:00,17.0,4.0,-100.00,SW,232,3.0,5.0,55,0.00,,,0.00,0.000000,,2013-03-24 07:42:00,
2013-03-24 01:52:00,17.0,4.0,-100.00,SW,232,3.0,5.0,55,0.00,,,0.00,0.000000,,2013-03-24 07:52:00,
2013-03-24 02:22:00,15.0,4.0,-100.00,WSW,237,4.0,7.0,60,0.00,,,0.00,0.000000,,2013-03-24 08:22:00,
2013-03-24 02:32:00,15.0,4.0,-100.00,WSW,237,4.0,7.0,60,0.00,,,0.00,0.000000,,2013-03-24 08:32:00,
2013-03-24 02:42:00,15.0,4.0,-100.00,WSW,237,4.0,7.0,60,0.00,,,0.00,0.000000,,2013-03-24 08:42:00,
2013-03-24 02:52:00,15.0,4.0,-100.00,WSW,237,4.0,7.0,60,0.00,,,0.00,0.000000,,2013-03-24 08:52:00,
2013-03-24 03:02:00,15.0,4.0,-100.00,WSW,237,4.0,7.0,60,0.00,,,0.00,0.000000,,2013-03-24 09:02:00,
2013-03-24 03:22:00,14.0,2.0,-100.00,West,265,2.0,7.0,59,0.00,,,0.00,0.000000,,2013-03-24 09:22:00,
2013-03-24 03:33:00,14.0,2.0,-100.00,West,265,2.0,7.0,59,0.00,,,0.00,0.000000,,2013-03-24 09:33:00,
2013-03-24 03:43:00,14.0,2.0,-100.00,West,265,2.0,7.0,59,0.00,,,0.00,0.000000,,2013-03-24 09:43:00,
2013-03-24 03:52:00,14.0,2.0,-100.00,West,265,2.0,7.0,59,0.00,,,0.00,0.000000,,2013-03-24 09:52:00,
2013-03-24 04:02:00,14.0,2.0,-100.00,West,265,2.0,7.0,59,0.00,,,0.00,0.000000,,2013-03-24 10:02:00,
2013-03-24 04:33:00,13.0,3.0,-100.00,WSW,238,4.0,7.0,63,0.00,,,0.00,0.000000,,2013-03-24 10:33:00,
2013-03-24 04:42:00,13.0,3.0,-100.00,WSW,238,4.0,7.0,63,0.00,,,0.00,0.000000,,2013-03-24 10:42:00,
2013-03-24 04:52:00,13.0,3.0,-100.00,WSW,238,4.0,7.0,63,0.00,,,0.00,0.000000,,2013-03-24 10:52:00,
2013-03-24 05:02:00,13.0,3.0,-100.00,WSW,238,4.0,7.0,63,0.00,,,0.00,0.000000,,2013-03-24 11:02:00,
2013-03-24 05:22:00,12.0,3.0,-100.00,WSW,237,3.0,7.0,66,0.00,,,0.00,0.000000,,2013-03-24 11:22:00,
2013-03-24 05:33:00,12.0,3.0,-100.00,WSW,237,3.0,7.0,66,0.00,,,0.00,0.000000,,2013-03-24 11:33:00,
2013-03-24 05:42:00,12.0,3.0,-100.00,WSW,237,3.0,7.0,66,0.00,,,0.00,0.000000,,2013-03-24 11:42:00,
2013-03-24 05:52:00,12.0,3.0,-100.00,WSW,237,3.0,7.0,66,0.00,,,0.00,0.000000,,2013-03-24 11:52:00,
2013-03-24 06:02:00,12.0,3.0,-100.00,WSW,237,3.0,7.0,66,0.00,,,0.00,0.000000,,2013-03-24 12:02:00,
2013-03-24 06:23:00,12.0,3.0,-100.00,WSW,250,0.0,8.0,66,0.00,,,-99.99,0.000000,,2013-03-24 12:23:00,
2013-03-24 06:32:00,12.0,3.0,-100.00,WSW,250,0.0,8.0,66,0.00,,,-99.99,0.000000,,2013-03-24 12:32:00,
2013-03-24 06:42:00,12.0,3.0,-100.00,WSW,250,0.0,8.0,66,0.00,,,-99.99,0.000000,,2013-03-24 12:42:00,
2013-03-24 06:52:00,12.0,3.0,-100.00,WSW,250,0.0,8.0,66,0.00,,,-99.99,0.000000,,2013-03-24 12:52:00,
2013-03-24 07:01:00,12.0,3.0,-100.00,WSW,250,0.0,8.0,66,0.00,,,-99.99,0.000000,,2013-03-24 13:01:00,
2013-03-24 07:23:00,11.0,2.0,-100.00,SW,234,5.0,7.0,65,0.00,,,0.00,0.000000,,2013-03-24 13:23:00,
2013-03-24 07:32:00,11.0,2.0,-100.00,SW,234,5.0,7.0,65,0.00,,,0.00,0.000000,,2013-03-24 13:32:00,
2013-03-24 07:42:00,11.0,2.0,-100.00,SW,234,5.0,7.0,65,0.00,,,0.00,0.000000,,2013-03-24 13:42:00,
2013-03-24 07:52:00,11.0,2.0,-100.00,SW,234,5.0,7.0,65,0.00,,,0.00,0.000000,,2013-03-24 13:52:00,
2013-03-24 08:01:00,11.0,2.0,-100.00,SW,234,5.0,7.0,65,0.00,,,0.00,0.000000,,2013-03-24 14:01:00,
2013-03-24 08:33:00,13.0,3.0,-100.00,WSW,251,2.0,7.0,63,0.00,,,0.00,22.000000,,2013-03-24 14:33:00,
2013-03-24 08:42:00,13.0,3.0,-100.00,WSW,251,2.0,7.0,63,0.00,,,0.00,22.000000,,2013-03-24 14:42:00,
2013-03-24 08:52:00,13.0,3.0,-100.00,WSW,251,2.0,7.0,63,0.00,,,0.00,22.000000,,2013-03-24 14:52:00,
2013-03-24 09:01:00,13.0,3.0,-100.00,WSW,251,2.0,7.0,63,0.00,,,0.00,22.000000,,2013-03-24 15:01:00,
2013-03-24 09:22:00,23.0,7.0,-100.00,East,93,0.0,4.0,49,0.00,,,0.00,212.000000,,2013-03-24 15:22:00,
2013-03-24 09:33:00,23.0,7.0,-100.00,East,93,0.0,4.0,49,0.00,,,0.00,212.000000,,2013-03-24 15:33:00,
2013-03-24 10:23:00,26.0,8.0,-100.00,ENE,74,2.0,6.0,45,0.00,,,0.00,426.000000,,2013-03-24 16:23:00,
2013-03-24 10:33:00,26.0,8.0,-100.00,ENE,74,2.0,6.0,45,0.00,,,0.00,426.000000,,2013-03-24 16:33:00,
2013-03-24 11:23:00,29.0,8.0,-100.00,ESE,107,4.0,9.0,40,0.00,,,0.00,634.000000,,2013-03-24 17:23:00,
2013-03-24 11:33:00,29.0,8.0,-100.00,ESE,107,4.0,9.0,40,0.00,,,0.00,634.000000,,2013-03-24 17:33:00,
2013-03-24 11:42:00,29.0,8.0,-100.00,ESE,107,4.0,9.0,40,0.00,,,0.00,634.000000,,2013-03-24 17:42:00,
2013-03-24 11:53:00,29.0,8.0,-100.00,ESE,107,4.0,9.0,40,0.00,,,0.00,634.000000,,2013-03-24 17:53:00,
2013-03-24 12:02:00,29.0,8.0,-100.00,ESE,107,4.0,9.0,40,0.00,,,0.00,634.000000,,2013-03-24 18:02:00,
2013-03-24 12:22:00,30.0,6.0,-100.00,East,97,7.0,12.0,35,0.00,,,0.00,789.000000,,2013-03-24 18:22:00,
2013-03-24 12:33:00,30.0,6.0,-100.00,East,97,7.0,12.0,35,0.00,,,0.00,789.000000,,2013-03-24 18:33:00,
2013-03-24 12:43:00,30.0,6.0,-100.00,East,97,7.0,12.0,35,0.00,,,0.00,789.000000,,2013-03-24 18:43:00,
2013-03-24 12:52:00,30.0,6.0,-100.00,East,97,7.0,12.0,35,0.00,,,0.00,789.000000,,2013-03-24 18:52:00,
2013-03-24 13:02:00,30.0,6.0,-100.00,East,97,7.0,12.0,35,0.00,,,0.00,789.000000,,2013-03-24 19:02:00,
2013-03-24 13:23:00,33.0,4.0,-100.00,SSE,150,5.0,12.0,29,0.00,,,0.00,958.000000,,2013-03-24 19:23:00,
2013-03-24 13:32:00,33.0,4.0,-100.00,SSE,150,5.0,12.0,29,0.00,,,0.00,958.000000,,2013-03-24 19:32:00,
2013-03-24 13:43:00,33.0,4.0,-100.00,SSE,150,5.0,12.0,29,0.00,,,0.00,958.000000,,2013-03-24 19:43:00,
2013-03-24 13:53:00,33.0,4.0,-100.00,SSE,150,5.0,12.0,29,0.00,,,0.00,958.000000,,2013-03-24 19:53:00,
2013-03-24 14:02:00,33.0,4.0,-100.00,SSE,150,5.0,12.0,29,0.00,,,0.00,958.000000,,2013-03-24 20:02:00,
2013-03-24 14:32:00,36.0,5.0,-100.00,South,174,3.0,11.0,27,0.00,,,0.00,787.000000,,2013-03-24 20:32:00,
2013-03-24 14:43:00,36.0,5.0,-100.00,South,174,3.0,11.0,27,0.00,,,0.00,787.000000,,2013-03-24 20:43:00,
2013-03-24 14:53:00,36.0,5.0,-100.00,South,174,3.0,11.0,27,0.00,,,0.00,787.000000,,2013-03-24 20:53:00,
2013-03-24 15:02:00,36.0,5.0,-100.00,South,174,3.0,11.0,27,0.00,,,0.00,787.000000,,2013-03-24 21:02:00,
2013-03-24 15:33:00,35.0,4.0,-100.00,NE,45,1.0,10.0,26,0.00,,,-99.99,686.000000,,2013-03-24 21:33:00,
2013-03-24 15:43:00,35.0,4.0,-100.00,NE,45,1.0,10.0,26,0.00,,,-99.99,686.000000,,2013-03-24 21:43:00,
2013-03-24 15:53:00,35.0,4.0,-100.00,NE,45,1.0,10.0,26,0.00,,,-99.99,686.000000,,2013-03-24 21:53:00,
2013-03-24 16:02:00,35.0,4.0,-100.00,NE,45,1.0,10.0,26,0.00,,,-99.99,686.000000,,2013-03-24 22:02:00,
2013-03-24 16:23:00,33.0,3.0,-100.00,ENE,67,1.0,11.0,28,0.00,,,0.00,443.000000,,2013-03-24 22:23:00,
2013-03-24 16:33:00,33.0,3.0,-100.00,ENE,67,1.0,11.0,28,0.00,,,0.00,443.000000,,2013-03-24 22:33:00,
2013-03-24 16:43:00,33.0,3.0,-100.00,ENE,67,1.0,11.0,28,0.00,,,0.00,443.000000,,2013-03-24 22:43:00,
2013-03-24 16:52:00,33.0,3.0,-100.00,ENE,67,1.0,11.0,28,0.00,,,0.00,443.000000,,2013-03-24 22:52:00,
2013-03-24 17:02:00,33.0,3.0,-100.00,ENE,67,1.0,11.0,28,0.00,,,0.00,443.000000,,2013-03-24 23:02:00,
2013-03-24 17:32:00,40.0,4.0,-100.00,NW,307,1.0,9.0,22,0.00,,,0.00,561.000000,,2013-03-24 23:32:00,
2013-03-24 17:42:00,40.0,4.0,-100.00,NW,307,1.0,9.0,22,0.00,,,0.00,561.000000,,2013-03-24 23:42:00,
2013-03-24 17:52:00,40.0,4.0,-100.00,NW,307,1.0,9.0,22,0.00,,,0.00,561.000000,,2013-03-24 23:52:00,
2013-03-24 18:02:00,40.0,4.0,-100.00,NW,307,1.0,9.0,22,0.00,,,0.00,561.000000,,2013-03-25 00:02:00,
2013-03-24 18:23:00,35.0,0.0,-100.00,NE,40,5.0,11.0,22,0.00,,,0.00,451.000000,,2013-03-25 00:23:00,
2013-03-24 18:33:00,35.0,0.0,-100.00,NE,40,5.0,11.0,22,0.00,,,0.00,451.000000,,2013-03-25 00:33:00,
2013-03-24 18:43:00,35.0,0.0,-100.00,NE,40,5.0,11.0,22,0.00,,,0.00,451.000000,,2013-03-25 00:43:00,
2013-03-24 18:52:00,35.0,0.0,-100.00,NE,40,5.0,11.0,22,0.00,,,0.00,451.000000,,2013-03-25 00:52:00,
2013-03-24 19:01:00,35.0,0.0,-100.00,NE,40,5.0,11.0,22,0.00,,,0.00,451.000000,,2013-03-25 01:01:00,
2013-03-24 19:32:00,33.0,-3.0,-100.00,ENE,58,4.0,10.0,21,0.00,,,0.00,142.000000,,2013-03-25 01:32:00,
2013-03-24 19:42:00,33.0,-3.0,-100.00,ENE,58,4.0,10.0,21,0.00,,,0.00,142.000000,,2013-03-25 01:42:00,
2013-03-24 19:52:00,33.0,-3.0,-100.00,ENE,58,4.0,10.0,21,0.00,,,0.00,142.000000,,2013-03-25 01:52:00,
2013-03-24 20:01:00,33.0,-3.0,-100.00,ENE,58,4.0,10.0,21,0.00,,,0.00,142.000000,,2013-03-25 02:01:00,
2013-03-24 20:33:00,28.0,-1.0,-100.00,SW,226,4.0,6.0,28,0.00,,,0.00,12.000000,,2013-03-25 02:33:00,
2013-03-24 20:43:00,28.0,-1.0,-100.00,SW,226,4.0,6.0,28,0.00,,,0.00,12.000000,,2013-03-25 02:43:00,
2013-03-24 20:52:00,28.0,-1.0,-100.00,SW,226,4.0,6.0,28,0.00,,,0.00,12.000000,,2013-03-25 02:52:00,
2013-03-24 21:02:00,28.0,-1.0,-100.00,SW,226,4.0,6.0,28,0.00,,,0.00,12.000000,,2013-03-25 03:02:00,
2013-03-24 21:34:00,25.0,-1.0,-100.00,SW,228,6.0,8.0,32,0.00,,,0.00,0.000000,,2013-03-25 03:34:00,
2013-03-24 21:43:00,25.0,-1.0,-100.00,SW,228,6.0,8.0,32,0.00,,,0.00,0.000000,,2013-03-25 03:43:00,
2013-03-24 21:53:00,25.0,-1.0,-100.00,SW,228,6.0,8.0,32,0.00,,,0.00,0.000000,,2013-03-25 03:53:00,
2013-03-24 22:02:00,25.0,-1.0,-100.00,SW,228,6.0,8.0,32,0.00,,,0.00,0.000000,,2013-03-25 04:02:00,
2013-03-24 22:33:00,26.0,0.0,-100.00,SW,220,10.0,11.0,32,0.00,,,0.00,0.000000,,2013-03-25 04:33:00,
2013-03-24 22:43:00,26.0,0.0,-100.00,SW,220,10.0,11.0,32,0.00,,,0.00,0.000000,,2013-03-25 04:43:00,
2013-03-24 22:52:00,26.0,0.0,-100.00,SW,220,10.0,11.0,32,0.00,,,0.00,0.000000,,2013-03-25 04:52:00,
2013-03-24 23:02:00,26.0,0.0,-100.00,SW,220,10.0,11.0,32,0.00,,,0.00,0.000000,,2013-03-25 05:02:00,
2013-03-24 23:33:00,26.0,0.0,-100.00,SW,218,9.0,12.0,31,0.00,,,0.00,0.000000,,2013-03-25 05:33:00,
2013-03-24 23:42:00,26.0,0.0,-100.00,SW,218,9.0,12.0,31,0.00,,,0.00,0.000000,,2013-03-25 05:42:00,
2013-03-24 23:52:00,26.0,0.0,-100.00,SW,218,9.0,12.0,31,0.00,,,0.00,0.000000,,2013-03-25 05:52:00,